Time;durP1;ratioP1;P1;durP2;ratioP2;P2;SDS_P1;SDS_P2;PMS_P1;PMS_P2;Temp;Humidity;BMP_temperature;BMP_pressure;BME280_temperature;BME280_humidity;BME280_pressure;Samples;Min_cycle;Max_cycle;Signal;HPM_P1;HPM_P2
2022/08/31 00:05:30;;;;;;;10.73;8.23;;;21.90;91.90;;;;;;5008601;28;20551;-63
2022/08/31 00:07:56;;;;;;;11.70;8.70;;;21.80;92.20;;;;;;5012889;28;20485;-63
2022/08/31 00:10:27;;;;;;;9.90;8.90;;;21.70;92.70;;;;;;5006277;28;20672;-62
2022/08/31 00:12:54;;;;;;;12.47;9.00;;;21.60;92.80;;;;;;5011159;28;21406;-63
2022/08/31 00:15:23;;;;;;;9.93;8.10;;;21.50;93.40;;;;;;5010073;28;20492;-62
2022/08/31 00:17:51;;;;;;;19.83;12.00;;;21.40;93.80;;;;;;5013294;28;20469;-63
2022/08/31 00:20:19;;;;;;;8.57;6.53;;;21.50;93.60;;;;;;5010921;28;20966;-63
2022/08/31 00:22:47;;;;;;;12.87;8.80;;;21.50;93.90;;;;;;5011026;28;20493;-63
2022/08/31 00:25:14;;;;;;;9.50;7.80;;;21.50;94.00;;;;;;5012704;28;20489;-63
2022/08/31 00:27:41;;;;;;;10.23;7.70;;;21.50;93.70;;;;;;5010726;28;20485;-62
2022/08/31 00:30:09;;;;;;;9.53;6.87;;;21.60;93.80;;;;;;5013636;28;20485;-63
2022/08/31 00:32:36;;;;;;;14.93;7.53;;;21.70;93.50;;;;;;5012094;28;20475;-63
2022/08/31 00:35:03;;;;;;;8.47;7.27;;;21.80;93.40;;;;;;5012367;28;20476;-63
2022/08/31 00:37:30;;;;;;;8.73;6.93;;;22.00;92.50;;;;;;5012622;28;20844;-64
2022/08/31 00:39:58;;;;;;;9.37;7.60;;;22.20;92.70;;;;;;4996274;28;20658;-64
2022/08/31 00:42:25;;;;;;;8.73;7.10;;;22.40;91.90;;;;;;5007324;28;20851;-63
2022/08/31 00:44:51;;;;;;;7.80;7.00;;;22.50;91.50;;;;;;4995397;28;20479;-64
2022/08/31 00:47:18;;;;;;;9.20;7.80;;;22.60;91.00;;;;;;5010050;28;20492;-63
2022/08/31 00:49:50;;;;;;;8.70;6.53;;;23.60;91.20;;;;;;5011498;28;20492;-63
2022/08/31 00:52:21;;;;;;;7.53;6.40;;;22.80;90.90;;;;;;4997868;28;20807;-64
2022/08/31 00:54:52;;;;;;;7.30;6.50;;;22.80;90.60;;;;;;5005107;28;20571;-64
2022/08/31 00:57:21;;;;;;;12.03;7.50;;;22.80;90.80;;;;;;5010943;28;20556;-64
2022/08/31 00:59:49;;;;;;;7.30;6.60;;;22.80;90.80;;;;;;5010373;28;21059;-63
2022/08/31 01:02:16;;;;;;;8.77;6.40;;;22.80;91.10;;;;;;5011299;28;20542;-63
2022/08/31 01:04:43;;;;;;;8.17;6.63;;;22.70;90.90;;;;;;5012106;28;20484;-63
2022/08/31 01:07:10;;;;;;;6.60;5.90;;;22.70;91.10;;;;;;5012718;28;20476;-63
2022/08/31 01:09:40;;;;;;;7.73;6.93;;;22.70;91.20;;;;;;5013685;28;20484;-63
2022/08/31 01:12:09;;;;;;;7.50;6.70;;;22.60;91.50;;;;;;5010619;28;20843;-62
2022/08/31 01:14:38;;;;;;;6.67;6.00;;;22.60;91.50;;;;;;5010518;28;20850;-64
2022/08/31 01:17:06;;;;;;;12.17;7.93;;;22.70;91.00;;;;;;5011563;28;20492;-64
2022/08/31 01:19:37;;;;;;;7.67;6.87;;;22.80;90.50;;;;;;5006632;28;20524;-63
2022/08/31 01:22:12;;;;;;;7.00;6.30;;;22.80;90.80;;;;;;5011490;28;20835;-64
2022/08/31 01:24:43;;;;;;;6.90;5.60;;;22.80;90.30;;;;;;5010838;28;20480;-64
2022/08/31 01:27:12;;;;;;;6.13;5.50;;;22.90;90.60;;;;;;5012734;28;20468;-63
2022/08/31 01:29:39;;;;;;;7.80;6.70;;;22.90;90.50;;;;;;5011926;28;20504;-63
2022/08/31 01:32:07;;;;;;;8.10;7.30;;;23.00;90.50;;;;;;5010490;28;20485;-63
2022/08/31 01:34:34;;;;;;;7.67;6.63;;;22.70;91.20;;;;;;5010870;28;20488;-63
2022/08/31 01:37:01;;;;;;;7.93;7.13;;;22.60;91.60;;;;;;5008861;28;20491;-64
2022/08/31 01:39:28;;;;;;;6.73;6.03;;;22.30;91.90;;;;;;5008206;28;20484;-63
2022/08/31 01:41:57;;;;;;;7.27;6.57;;;22.10;92.30;;;;;;5010451;28;20484;-63
2022/08/31 01:44:25;;;;;;;7.53;6.60;;;21.90;92.90;;;;;;5000159;28;20489;-63
2022/08/31 01:46:53;;;;;;;6.13;5.53;;;21.80;92.90;;;;;;5006869;28;20754;-64
2022/08/31 01:49:21;;;;;;;6.53;5.87;;;21.80;93.00;;;;;;5010637;28;20493;-63
2022/08/31 01:51:49;;;;;;;10.40;6.97;;;21.90;92.90;;;;;;5007486;28;20485;-63
2022/08/31 01:54:17;;;;;;;8.63;6.37;;;21.90;92.90;;;;;;5011138;28;20967;-64
2022/08/31 01:56:46;;;;;;;9.40;6.90;;;21.90;93.10;;;;;;5010355;28;21015;-63
2022/08/31 01:59:19;;;;;;;8.17;6.87;;;22.00;92.40;;;;;;5010872;28;20484;-64
2022/08/31 02:01:49;;;;;;;9.37;5.83;;;22.00;92.60;;;;;;5008881;28;20468;-64
2022/08/31 02:04:17;;;;;;;7.30;6.53;;;22.00;92.30;;;;;;5010757;28;20810;-63
2022/08/31 02:06:48;;;;;;;6.50;5.50;;;22.10;92.00;;;;;;5010825;28;21100;-62
2022/08/31 02:09:15;;;;;;;7.47;6.57;;;22.10;92.00;;;;;;5008797;28;20492;-63
2022/08/31 02:11:42;;;;;;;9.50;7.13;;;22.20;92.10;;;;;;5008160;28;20473;-63
2022/08/31 02:14:09;;;;;;;7.80;6.40;;;22.10;92.40;;;;;;4998194;28;20495;-64
2022/08/31 02:16:38;;;;;;;9.47;6.80;;;23.80;94.00;;;;;;5008813;28;20477;-64
2022/08/31 02:19:05;;;;;;;8.03;6.43;;;21.80;93.20;;;;;;4999030;28;20484;-63
2022/08/31 02:21:33;;;;;;;6.73;6.07;;;21.80;92.80;;;;;;5006761;28;21043;-63
2022/08/31 02:23:59;;;;;;;6.90;5.90;;;21.80;92.80;;;;;;5009148;28;20958;-63
2022/08/31 02:26:26;;;;;;;10.30;5.93;;;21.80;93.00;;;;;;5001366;28;20488;-63
2022/08/31 02:28:53;;;;;;;7.80;6.40;;;21.70;92.90;;;;;;5003194;28;20476;-64
2022/08/31 02:31:20;;;;;;;7.07;6.43;;;21.60;93.60;;;;;;5000372;28;20508;-63
2022/08/31 02:33:48;;;;;;;6.83;6.13;;;21.50;93.90;;;;;;5008357;28;20481;-64
2022/08/31 02:36:15;;;;;;;7.53;6.43;;;21.30;94.20;;;;;;4983658;28;20821;-63
2022/08/31 02:38:41;;;;;;;9.83;7.30;;;21.50;94.10;;;;;;5011628;28;20477;-64
2022/08/31 02:41:08;;;;;;;10.90;6.13;;;21.50;93.40;;;;;;5009720;28;20796;-63
2022/08/31 02:43:35;;;;;;;6.13;5.53;;;21.60;93.10;;;;;;5006567;28;20818;-63
2022/08/31 02:46:02;;;;;;;6.85;6.18;;;21.60;92.90;;;;;;5009252;28;20489;-64
2022/08/31 02:48:29;;;;;;;7.50;6.03;;;21.70;93.00;;;;;;5015311;28;20606;-63
2022/08/31 02:51:03;;;;;;;9.60;5.67;;;21.70;93.10;;;;;;5008062;28;20892;-64
2022/08/31 02:53:30;;;;;;;8.83;6.67;;;21.70;92.70;;;;;;5012786;28;21131;-64
2022/08/31 02:55:57;;;;;;;6.83;6.13;;;21.70;92.60;;;;;;5014183;28;20851;-63
2022/08/31 02:58:23;;;;;;;7.03;5.93;;;21.80;92.30;;;;;;5014937;28;20480;-63
2022/08/31 03:00:51;;;;;;;7.80;6.57;;;21.80;92.60;;;;;;5013625;28;21168;-64
2022/08/31 03:03:18;;;;;;;7.30;6.27;;;21.90;92.40;;;;;;5013926;28;20477;-63
2022/08/31 03:05:45;;;;;;;10.83;6.00;;;21.90;92.10;;;;;;5004815;28;20491;-63
2022/08/31 03:08:13;;;;;;;7.03;6.20;;;22.00;91.80;;;;;;5012896;28;20516;-64
2022/08/31 03:10:40;;;;;;;8.50;5.80;;;21.70;93.10;;;;;;5007281;28;20476;-64
2022/08/31 03:13:07;;;;;;;8.80;6.30;;;21.70;92.90;;;;;;5009458;28;20493;-63
2022/08/31 03:15:33;;;;;;;6.27;5.67;;;21.60;93.20;;;;;;5014048;28;20499;-62
2022/08/31 03:18:00;;;;;;;9.60;7.17;;;21.30;93.60;;;;;;5013450;28;20852;-64
2022/08/31 03:20:27;;;;;;;7.30;6.40;;;21.30;93.90;;;;;;5014356;28;20485;-63
2022/08/31 03:22:55;;;;;;;7.20;6.40;;;21.10;94.00;;;;;;5006836;28;20859;-62
2022/08/31 03:25:23;;;;;;;11.67;6.70;;;21.20;93.50;;;;;;5013897;28;20899;-63
2022/08/31 03:27:50;;;;;;;9.07;6.63;;;21.20;93.30;;;;;;5014818;28;20476;-63
2022/08/31 03:30:20;;;;;;;8.17;6.30;;;21.30;93.50;;;;;;5013610;28;20491;-63
2022/08/31 03:32:47;;;;;;;6.80;6.10;;;21.30;93.20;;;;;;5011965;28;21162;-62
2022/08/31 03:35:16;;;;;;;8.60;6.77;;;21.40;92.90;;;;;;5013479;28;20476;-64
2022/08/31 03:37:43;;;;;;;6.63;5.87;;;21.40;93.20;;;;;;5013764;28;20583;-64
2022/08/31 03:40:10;;;;;;;7.77;5.80;;;21.40;93.00;;;;;;5013254;28;20487;-63
2022/08/31 03:42:39;;;;;;;9.23;7.17;;;21.40;92.50;;;;;;5014415;28;21065;-63
2022/08/31 03:45:07;;;;;;;8.37;7.30;;;21.40;92.60;;;;;;5013571;28;20477;-63
2022/08/31 03:47:34;;;;;;;7.73;6.07;;;21.50;92.20;;;;;;5014622;28;20555;-62
2022/08/31 03:50:02;;;;;;;9.13;6.43;;;21.50;92.40;;;;;;5012026;28;20491;-64
2022/08/31 03:52:29;;;;;;;10.80;6.57;;;21.50;92.00;;;;;;5010161;28;20544;-63
2022/08/31 03:54:56;;;;;;;8.43;5.93;;;21.60;92.40;;;;;;5010609;28;20854;-64
2022/08/31 03:57:23;;;;;;;11.50;6.47;;;20.50;92.50;;;;;;5011294;28;20821;-64
2022/08/31 03:59:53;;;;;;;7.97;5.60;;;21.40;93.00;;;;;;5012144;28;20487;-63
2022/08/31 04:02:20;;;;;;;6.50;5.70;;;21.40;92.70;;;;;;5012185;28;20624;-63
2022/08/31 04:04:50;;;;;;;11.67;7.30;;;21.50;92.20;;;;;;5009678;28;20469;-64
2022/08/31 04:07:17;;;;;;;7.50;6.70;;;21.40;92.50;;;;;;5013176;28;20481;-63
2022/08/31 04:09:44;;;;;;;8.90;6.20;;;21.40;92.60;;;;;;5012914;28;20948;-63
2022/08/31 04:12:11;;;;;;;8.67;6.30;;;21.30;93.30;;;;;;5013339;28;20620;-63
2022/08/31 04:14:37;;;;;;;7.87;6.07;;;21.00;93.60;;;;;;5011951;28;20492;-63
2022/08/31 04:17:05;;;;;;;7.53;6.33;;;20.90;94.10;;;;;;5011897;28;21466;-64
2022/08/31 04:19:32;;;;;;;7.60;6.43;;;21.00;94.00;;;;;;5013302;28;20853;-63
2022/08/31 04:21:59;;;;;;;7.70;6.80;;;21.00;93.40;;;;;;5013055;28;21180;-63
2022/08/31 04:24:26;;;;;;;8.13;6.43;;;21.00;94.10;;;;;;5011489;28;20481;-62
2022/08/31 04:26:53;;;;;;;6.47;5.73;;;20.90;94.30;;;;;;5012211;28;20480;-62
2022/08/31 04:29:20;;;;;;;8.70;6.60;;;20.90;93.90;;;;;;5012364;28;20821;-62
2022/08/31 04:31:46;;;;;;;11.60;7.07;;;21.00;94.20;;;;;;5013005;28;20485;-63
2022/08/31 04:34:15;;;;;;;9.93;7.03;;;21.00;93.70;;;;;;5011541;28;20539;-63
2022/08/31 04:36:44;;;;;;;8.23;6.00;;;21.00;93.40;;;;;;5011977;28;20492;-63
2022/08/31 04:39:11;;;;;;;8.20;6.10;;;21.00;93.50;;;;;;5010104;28;20872;-63
2022/08/31 04:41:39;;;;;;;6.90;6.30;;;21.00;93.70;;;;;;5011689;28;20485;-63
2022/08/31 04:44:07;;;;;;;6.73;6.10;;;21.00;93.70;;;;;;5009296;28;20796;-63
2022/08/31 04:46:36;;;;;;;10.30;7.20;;;21.00;93.80;;;;;;5013287;28;20683;-63
2022/08/31 04:49:04;;;;;;;7.90;7.10;;;21.00;93.80;;;;;;5003091;28;20671;-63
2022/08/31 04:51:34;;;;;;;7.43;6.53;;;21.00;93.70;;;;;;5004937;28;20833;-63
2022/08/31 04:54:02;;;;;;;7.20;6.30;;;21.00;93.80;;;;;;5009602;28;20573;-63
2022/08/31 04:56:32;;;;;;;8.07;7.20;;;20.90;94.30;;;;;;5009504;28;20846;-63
2022/08/31 04:59:01;;;;;;;8.07;6.57;;;20.80;94.50;;;;;;5005790;28;21055;-63
2022/08/31 05:01:30;;;;;;;7.77;6.57;;;20.90;94.40;;;;;;5010756;28;20472;-63
2022/08/31 05:03:57;;;;;;;7.93;6.93;;;20.90;93.80;;;;;;5012175;28;20480;-63
2022/08/31 05:06:26;;;;;;;6.90;6.20;;;21.00;93.10;;;;;;5010695;28;20489;-63
2022/08/31 05:08:56;;;;;;;7.83;6.10;;;21.00;93.70;;;;;;5009702;28;20472;-63
2022/08/31 05:11:25;;;;;;;6.63;5.57;;;21.00;93.60;;;;;;4980324;28;21136;-64
2022/08/31 05:13:52;;;;;;;8.97;7.17;;;21.00;93.70;;;;;;5010289;28;20500;-63
2022/08/31 05:16:20;;;;;;;6.33;5.73;;;21.00;93.80;;;;;;5010531;28;20948;-63
2022/08/31 05:18:48;;;;;;;8.77;7.40;;;20.90;94.00;;;;;;5012590;28;20491;-63
2022/08/31 05:21:18;;;;;;;8.33;6.37;;;20.80;94.10;;;;;;5008690;28;21025;-63
2022/08/31 05:23:47;;;;;;;7.53;6.73;;;20.90;93.90;;;;;;5001156;28;20893;-63
2022/08/31 05:26:20;;;;;;;6.50;5.87;;;20.90;94.30;;;;;;5001276;28;20485;-63
2022/08/31 05:28:47;;;;;;;9.07;7.03;;;20.70;94.70;;;;;;5009122;28;20520;-63
2022/08/31 05:31:15;;;;;;;7.47;6.77;;;20.60;95.00;;;;;;5011594;28;20489;-63
2022/08/31 05:33:43;;;;;;;7.00;6.30;;;20.60;94.70;;;;;;5010738;28;21257;-63
2022/08/31 05:36:11;;;;;;;7.07;6.33;;;20.70;94.40;;;;;;5010027;28;20749;-62
2022/08/31 05:38:39;;;;;;;9.00;6.97;;;20.70;94.20;;;;;;5012169;28;20508;-63
2022/08/31 05:41:06;;;;;;;7.35;6.45;;;20.70;94.50;;;;;;5010448;28;20496;-63
2022/08/31 05:43:34;;;;;;;8.60;6.97;;;20.80;94.60;;;;;;5005230;28;20237;-64
2022/08/31 05:46:01;;;;;;;9.40;6.83;;;20.90;94.30;;;;;;4977227;28;20560;-64
2022/08/31 05:48:32;;;;;;;8.17;5.90;;;21.00;94.40;;;;;;5004022;28;20834;-64
2022/08/31 05:51:01;;;;;;;7.20;6.50;;;21.00;94.40;;;;;;4995674;28;20477;-63
2022/08/31 05:53:28;;;;;;;10.17;8.43;;;21.00;94.60;;;;;;5011386;28;20930;-63
2022/08/31 05:55:59;;;;;;;6.37;5.53;;;21.00;94.20;;;;;;5009203;28;20487;-63
2022/08/31 05:58:26;;;;;;;6.97;5.93;;;21.00;94.10;;;;;;5011557;28;20800;-63
2022/08/31 06:00:54;;;;;;;12.33;7.87;;;21.10;94.00;;;;;;5007216;28;20489;-63
2022/08/31 06:03:20;;;;;;;7.57;6.70;;;21.10;93.90;;;;;;5005603;28;20487;-63
2022/08/31 06:05:49;;;;;;;9.87;7.23;;;21.10;94.10;;;;;;5012816;28;20503;-63
2022/08/31 06:08:16;;;;;;;12.30;7.10;;;21.10;94.30;;;;;;5011854;28;20492;-63
2022/08/31 06:10:43;;;;;;;5.87;5.30;;;21.10;94.30;;;;;;5013174;28;20488;-63
2022/08/31 06:13:12;;;;;;;12.07;7.30;;;21.10;94.00;;;;;;5004794;28;20542;-63
2022/08/31 06:15:39;;;;;;;7.57;6.87;;;21.10;94.30;;;;;;5009548;28;20880;-64
2022/08/31 06:18:07;;;;;;;7.03;6.20;;;21.30;94.10;;;;;;5011310;28;20490;-63
2022/08/31 06:20:36;;;;;;;7.53;6.57;;;21.30;94.10;;;;;;5009076;28;20946;-63
2022/08/31 06:23:04;;;;;;;8.77;7.67;;;21.30;94.20;;;;;;5012836;28;20485;-64
2022/08/31 06:25:31;;;;;;;12.00;6.90;;;21.30;94.60;;;;;;5014250;28;20465;-62
2022/08/31 06:27:58;;;;;;;11.60;8.23;;;21.90;94.40;;;;;;5014214;28;20480;-63
2022/08/31 06:30:26;;;;;;;10.13;7.83;;;21.40;94.20;;;;;;5014159;28;20839;-64
2022/08/31 06:32:53;;;;;;;14.57;10.70;;;21.40;93.90;;;;;;4997820;28;20500;-64
2022/08/31 06:35:21;;;;;;;11.87;8.77;;;21.50;94.30;;;;;;5008201;28;20820;-63
2022/08/31 06:37:47;;;;;;;10.23;6.60;;;21.60;94.30;;;;;;5011300;28;20480;-65
2022/08/31 06:40:14;;;;;;;10.63;7.47;;;21.60;94.60;;;;;;5014371;28;20488;-63
2022/08/31 06:42:41;;;;;;;10.70;7.90;;;21.70;94.10;;;;;;5009299;28;20480;-63
2022/08/31 06:45:08;;;;;;;9.90;8.50;;;21.70;94.30;;;;;;5012478;28;20488;-64
2022/08/31 06:47:35;;;;;;;12.70;8.63;;;21.80;94.10;;;;;;5005664;28;20557;-64
2022/08/31 06:50:02;;;;;;;9.57;7.50;;;21.80;93.90;;;;;;5010019;28;20477;-64
2022/08/31 06:52:31;;;;;;;13.13;9.53;;;21.80;94.30;;;;;;5014736;28;20475;-63
2022/08/31 06:54:57;;;;;;;12.23;9.67;;;21.70;94.20;;;;;;4982147;28;20484;-63
2022/08/31 06:57:24;;;;;;;10.20;8.03;;;21.70;94.50;;;;;;5014509;28;21064;-64
2022/08/31 06:59:52;;;;;;;18.07;12.10;;;21.70;94.60;;;;;;5014568;28;21020;-65
2022/08/31 07:02:19;;;;;;;11.97;8.50;;;21.80;94.30;;;;;;5015207;28;20488;-63
2022/08/31 07:04:46;;;;;;;8.47;7.60;;;21.80;94.60;;;;;;5000619;28;20480;-65
2022/08/31 07:07:13;;;;;;;10.30;8.10;;;21.80;94.70;;;;;;5007646;28;20752;-64
2022/08/31 07:09:41;;;;;;;10.80;8.60;;;21.80;94.60;;;;;;5013673;28;20480;-64
2022/08/31 07:12:08;;;;;;;12.33;8.20;;;21.80;94.70;;;;;;5009433;28;20729;-63
2022/08/31 07:14:36;;;;;;;8.90;7.00;;;21.90;94.90;;;;;;5008195;28;20497;-63
2022/08/31 07:17:03;;;;;;;15.23;9.37;;;22.00;93.40;;;;;;5014499;28;20825;-62
2022/08/31 07:19:30;;;;;;;7.50;6.70;;;22.10;93.70;;;;;;5015408;28;20477;-63
2022/08/31 07:21:58;;;;;;;8.20;7.37;;;22.10;93.50;;;;;;5013546;28;20469;-64
2022/08/31 07:24:28;;;;;;;9.73;8.40;;;22.20;92.40;;;;;;4995874;28;20903;-64
2022/08/31 07:26:58;;;;;;;10.87;8.03;;;22.30;92.30;;;;;;5014228;28;20542;-62
2022/08/31 07:29:29;;;;;;;7.00;6.30;;;22.40;90.30;;;;;;5013620;28;20481;-63
2022/08/31 07:31:57;;;;;;;9.60;6.93;;;22.40;89.20;;;;;;5012394;28;20475;-63
2022/08/31 07:34:27;;;;;;;11.87;7.97;;;22.40;88.00;;;;;;5012948;28;20607;-63
2022/08/31 07:42:30;;;;;;;8.63;6.50;;;22.50;87.80;;;;;;5009937;28;20837;-63
2022/08/31 07:45:00;;;;;;;10.63;7.63;;;22.60;87.30;;;;;;5012968;28;20475;-64
2022/08/31 07:47:27;;;;;;;13.40;7.83;;;22.60;85.90;;;;;;4994041;28;20818;-64
2022/08/31 07:49:57;;;;;;;12.67;10.43;;;22.60;85.10;;;;;;4997601;28;20496;-63
2022/08/31 07:52:26;;;;;;;14.83;8.67;;;22.60;85.00;;;;;;5010528;28;20580;-63
2022/08/31 07:54:56;;;;;;;11.93;8.73;;;22.70;85.10;;;;;;5010936;28;20485;-65
2022/08/31 07:57:28;;;;;;;9.97;7.73;;;22.80;83.30;;;;;;5013287;28;20495;-63
2022/08/31 08:00:00;;;;;;;14.33;11.80;;;22.80;83.30;;;;;;5012878;28;20500;-63
2022/08/31 08:02:27;;;;;;;10.10;7.67;;;22.80;84.30;;;;;;5013065;28;20495;-62
2022/08/31 08:04:54;;;;;;;16.10;10.73;;;22.90;82.90;;;;;;5013031;28;20480;-64
2022/08/31 08:07:21;;;;;;;10.87;8.33;;;22.90;82.90;;;;;;5013256;28;20481;-61
2022/08/31 08:09:47;;;;;;;9.87;6.40;;;23.00;82.80;;;;;;5011486;28;20481;-65
2022/08/31 08:12:14;;;;;;;11.63;7.80;;;23.00;81.80;;;;;;5012171;28;20481;-63
2022/08/31 08:14:41;;;;;;;7.93;6.93;;;23.10;81.80;;;;;;5009822;28;20492;-64
2022/08/31 08:17:09;;;;;;;6.50;5.90;;;23.10;79.30;;;;;;4999407;28;20973;-64
2022/08/31 08:19:35;;;;;;;10.30;6.40;;;23.00;78.70;;;;;;5000105;28;21397;-63
2022/08/31 08:22:03;;;;;;;9.67;6.60;;;23.00;79.30;;;;;;4978694;28;20534;-64
2022/08/31 08:24:30;;;;;;;7.07;5.73;;;23.10;78.90;;;;;;5004194;28;20917;-66
2022/08/31 08:26:57;;;;;;;9.90;8.23;;;23.10;78.90;;;;;;5012514;28;20569;-63
2022/08/31 08:29:24;;;;;;;11.37;7.83;;;23.20;78.30;;;;;;5009225;28;20520;-66
2022/08/31 08:31:52;;;;;;;8.50;7.07;;;23.20;78.50;;;;;;5010842;28;20496;-64
2022/08/31 08:34:21;;;;;;;10.80;7.90;;;23.20;78.00;;;;;;5000364;28;20480;-61
2022/08/31 08:36:48;;;;;;;13.90;9.20;;;23.20;77.70;;;;;;4983710;28;20483;-66
2022/08/31 08:39:16;;;;;;;12.40;8.10;;;23.20;78.40;;;;;;4999646;28;20488;-64
2022/08/31 08:41:46;;;;;;;10.50;7.10;;;23.20;78.50;;;;;;5012806;28;20484;-63
2022/08/31 08:44:15;;;;;;;9.37;7.87;;;23.20;78.00;;;;;;4982593;28;20464;-64
2022/08/31 08:46:47;;;;;;;9.20;6.23;;;23.30;78.80;;;;;;5003237;28;20484;-66
2022/08/31 08:49:22;;;;;;;12.20;8.17;;;23.30;78.50;;;;;;4970113;28;20481;-67
2022/08/31 08:51:53;;;;;;;7.87;6.20;;;23.40;78.50;;;;;;4997982;28;20680;-61
2022/08/31 08:54:29;;;;;;;11.20;8.20;;;23.40;77.90;;;;;;5006969;28;20477;-64
2022/08/31 08:56:58;;;;;;;10.53;8.20;;;23.50;78.00;;;;;;5012638;28;20484;-67
2022/08/31 08:59:27;;;;;;;10.90;9.23;;;23.50;78.50;;;;;;5000524;28;21045;-65
2022/08/31 09:02:00;;;;;;;12.20;9.63;;;23.50;77.50;;;;;;5009517;28;20484;-66
2022/08/31 09:05:03;;;;;;;9.80;6.33;;;23.60;77.70;;;;;;5007486;28;20495;-64
2022/08/31 09:07:55;;;;;;;10.80;7.13;;;22.70;76.60;;;;;;5012283;28;20487;-63
2022/08/31 09:10:28;;;;;;;8.93;7.50;;;23.70;77.80;;;;;;4989409;28;20879;-61
2022/08/31 09:13:09;;;;;;;13.37;10.63;;;23.80;77.90;;;;;;5011323;28;20927;-65
2022/08/31 09:15:48;;;;;;;10.20;7.37;;;23.80;77.20;;;;;;5009145;28;20858;-64
2022/08/31 09:18:25;;;;;;;13.20;8.47;;;23.90;77.60;;;;;;5000473;28;20492;-63
2022/08/31 09:21:19;;;;;;;10.77;8.67;;;23.90;77.50;;;;;;5005786;28;20490;-67
2022/08/31 09:23:51;;;;;;;12.60;7.20;;;24.00;78.20;;;;;;4983805;28;21036;-64
2022/08/31 09:26:23;;;;;;;13.57;7.57;;;24.10;77.50;;;;;;5011976;28;20479;-65
2022/08/31 09:28:51;;;;;;;11.07;9.03;;;24.20;77.60;;;;;;5011696;28;20472;-66
2022/08/31 09:31:37;;;;;;;9.23;8.20;;;24.20;77.20;;;;;;5005879;28;20484;-63
2022/08/31 09:34:12;;;;;;;10.40;8.50;;;24.30;77.20;;;;;;5010898;28;20503;-64
2022/08/31 09:36:41;;;;;;;9.73;7.17;;;24.20;75.90;;;;;;5010336;28;20476;-62
2022/08/31 09:39:20;;;;;;;8.30;7.37;;;24.20;76.60;;;;;;4998403;28;20503;-60
2022/08/31 09:41:49;;;;;;;11.10;9.57;;;24.20;77.90;;;;;;4974312;28;21160;-60
2022/08/31 09:44:30;;;;;;;7.67;6.30;;;24.20;78.00;;;;;;4998319;28;20530;-61
2022/08/31 09:46:59;;;;;;;11.83;9.40;;;24.30;78.00;;;;;;4994113;28;21035;-62
2022/08/31 09:49:28;;;;;;;12.53;8.20;;;24.50;77.80;;;;;;5006988;28;20491;-66
2022/08/31 09:52:17;;;;;;;13.20;9.00;;;24.60;77.80;;;;;;5007401;28;20485;-65
2022/08/31 09:57:52;;;;;;;8.47;6.50;;;25.30;76.70;;;;;;5015870;28;20885;-69
2022/08/31 10:00:31;;;;;;;7.20;6.50;;;25.40;76.30;;;;;;5015507;28;20547;-65
2022/08/31 10:03:07;;;;;;;9.53;8.13;;;25.70;76.90;;;;;;5013874;28;20479;-68
2022/08/31 10:05:39;;;;;;;9.87;6.20;;;26.00;74.90;;;;;;5010480;28;20491;-65
2022/08/31 10:08:28;;;;;;;7.90;6.87;;;26.60;74.20;;;;;;5013044;28;20867;-66
2022/08/31 10:10:57;;;;;;;13.70;10.47;;;27.00;73.30;;;;;;5013353;28;20994;-67
2022/08/31 10:13:33;;;;;;;6.33;5.83;;;27.10;74.00;;;;;;5013409;28;20480;-67
2022/08/31 10:16:10;;;;;;;9.30;7.87;;;27.50;72.70;;;;;;4995333;28;20551;-68
2022/08/31 10:18:42;;;;;;;6.37;5.77;;;27.60;69.60;;;;;;5013900;28;20524;-65
2022/08/31 10:21:12;;;;;;;8.73;6.63;;;27.80;69.30;;;;;;5012988;28;20484;-62
2022/08/31 10:23:53;;;;;;;6.33;5.33;;;27.90;69.20;;;;;;5013672;28;20485;-65
2022/08/31 10:26:30;;;;;;;6.53;5.87;;;28.00;68.20;;;;;;4987917;28;20477;-67
2022/08/31 10:29:04;;;;;;;11.60;6.60;;;28.20;70.10;;;;;;5013549;28;20480;-63
2022/08/31 10:31:41;;;;;;;11.30;5.00;;;28.50;66.90;;;;;;5012777;28;20549;-64
2022/08/31 10:37:06;;;;;;;6.10;5.50;;;28.80;67.40;;;;;;5014558;28;20480;-65
2022/08/31 10:39:39;;;;;;;6.67;5.97;;;28.90;66.00;;;;;;5010440;28;20858;-66
2022/08/31 10:42:14;;;;;;;5.70;5.20;;;28.80;64.90;;;;;;5014097;28;20507;-64
2022/08/31 10:44:55;;;;;;;9.40;5.03;;;28.50;65.10;;;;;;5014694;28;20446;-66
2022/08/31 10:47:24;;;;;;;5.47;4.93;;;28.50;64.70;;;;;;4987097;28;20512;-63
2022/08/31 10:49:57;;;;;;;9.20;8.30;;;27.90;63.30;;;;;;4987536;28;20491;-65
2022/08/31 10:52:31;;;;;;;11.97;6.30;;;27.80;66.10;;;;;;4986662;28;20455;-66
2022/08/31 10:55:08;;;;;;;5.80;5.27;;;27.80;65.60;;;;;;4999808;28;20464;-67
2022/08/31 10:57:45;;;;;;;6.07;4.70;;;27.80;64.60;;;;;;5013558;28;20480;-62
2022/08/31 11:03:06;;;;;;;5.90;5.30;;;27.70;65.60;;;;;;5012892;28;21088;-67
2022/08/31 11:05:37;;;;;;;8.90;6.40;;;27.70;64.70;;;;;;5010559;28;20585;-65
2022/08/31 11:08:34;;;;;;;6.37;5.53;;;27.70;65.40;;;;;;5012935;28;20609;-64
2022/08/31 11:11:07;;;;;;;7.70;6.57;;;27.60;65.40;;;;;;5000991;28;20499;-66
2022/08/31 11:13:50;;;;;;;9.23;6.03;;;27.70;65.50;;;;;;5013466;28;20487;-66
2022/08/31 11:16:38;;;;;;;8.47;7.00;;;27.60;66.20;;;;;;5014122;28;20496;-66
2022/08/31 11:19:38;;;;;;;8.80;6.20;;;27.70;67.00;;;;;;5004535;28;20646;-69
2022/08/31 11:22:35;;;;;;;8.80;6.30;;;27.70;67.80;;;;;;4990489;28;20488;-67
2022/08/31 11:25:16;;;;;;;6.20;5.33;;;27.80;67.00;;;;;;4993885;28;20485;-70
2022/08/31 11:27:49;;;;;;;6.20;5.60;;;27.80;66.90;;;;;;5006975;28;20491;-66
2022/08/31 11:30:22;;;;;;;10.43;6.03;;;27.80;66.50;;;;;;4999787;28;20497;-64
2022/08/31 11:32:52;;;;;;;7.27;6.17;;;27.70;67.10;;;;;;4995491;28;20450;-68
2022/08/31 11:35:59;;;;;;;6.53;5.53;;;27.70;67.00;;;;;;5009955;28;20968;-66
2022/08/31 11:38:47;;;;;;;6.60;6.00;;;27.70;67.20;;;;;;4983077;28;21138;-61
2022/08/31 11:41:33;;;;;;;7.90;6.50;;;27.60;66.80;;;;;;5013629;28;21006;-64
2022/08/31 11:44:03;;;;;;;7.77;6.03;;;27.60;67.70;;;;;;4979632;28;20830;-67
2022/08/31 11:47:02;;;;;;;7.03;5.83;;;27.70;67.40;;;;;;4975452;28;20587;-69
2022/08/31 11:49:36;;;;;;;7.23;5.97;;;27.80;67.20;;;;;;4905314;29;20498;-65
2022/08/31 11:52:07;;;;;;;6.23;5.63;;;28.00;66.00;;;;;;4988422;28;20475;-67
2022/08/31 11:55:10;;;;;;;5.80;4.80;;;28.40;66.40;;;;;;5011451;28;20467;-65
2022/08/31 11:58:10;;;;;;;5.30;4.80;;;28.40;67.10;;;;;;5007688;28;20625;-64
2022/08/31 12:00:48;;;;;;;6.23;5.50;;;29.30;65.60;;;;;;4997584;28;20484;-66
2022/08/31 12:03:50;;;;;;;12.03;5.40;;;29.50;65.50;;;;;;5011701;28;20570;-62
2022/08/31 12:07:05;;;;;;;7.20;6.33;;;29.80;64.30;;;;;;5013352;28;20490;-66
2022/08/31 12:09:50;;;;;;;8.00;5.10;;;29.90;64.10;;;;;;5000944;28;20481;-66
2022/08/31 12:12:30;;;;;;;7.50;5.80;;;30.10;63.30;;;;;;5011756;28;20472;-65
2022/08/31 12:15:07;;;;;;;12.57;5.93;;;30.10;61.70;;;;;;5011998;28;20826;-65
2022/08/31 12:17:45;;;;;;;5.03;4.53;;;30.20;62.20;;;;;;5009699;28;20484;-69
2022/08/31 12:20:19;;;;;;;6.40;5.73;;;30.50;62.70;;;;;;5011198;28;20800;-67
2022/08/31 12:23:36;;;;;;;6.37;5.67;;;30.50;60.10;;;;;;5009106;28;20463;-67
2022/08/31 12:26:23;;;;;;;6.63;5.63;;;30.30;60.40;;;;;;4963648;28;20489;-68
2022/08/31 12:29:14;;;;;;;7.53;5.10;;;30.40;61.10;;;;;;5006015;28;20488;-68
2022/08/31 12:31:41;;;;;;;9.00;6.20;;;30.60;60.70;;;;;;4994933;28;20750;-64
2022/08/31 12:34:13;;;;;;;10.27;5.37;;;30.80;61.80;;;;;;4969066;28;20500;-65
2022/08/31 12:36:40;;;;;;;7.03;6.03;;;31.10;61.90;;;;;;4983328;28;20477;-67
2022/08/31 12:39:10;;;;;;;6.63;5.10;;;30.70;59.80;;;;;;4979536;28;20495;-68
2022/08/31 12:41:42;;;;;;;7.37;6.67;;;30.10;61.20;;;;;;5006147;28;20440;-67
2022/08/31 12:44:09;;;;;;;6.77;6.07;;;30.00;62.00;;;;;;5004093;28;20492;-63
2022/08/31 12:46:53;;;;;;;6.87;5.70;;;29.60;61.90;;;;;;5013223;28;20458;-67
2022/08/31 12:49:43;;;;;;;6.97;5.57;;;29.30;63.80;;;;;;5013459;28;20495;-62
2022/08/31 12:52:22;;;;;;;7.20;6.50;;;28.80;64.40;;;;;;4998157;28;20467;-65
2022/08/31 12:55:12;;;;;;;6.93;5.90;;;28.60;65.00;;;;;;4999601;28;20834;-70
2022/08/31 12:57:49;;;;;;;8.23;7.37;;;28.50;65.70;;;;;;5013583;28;20493;-69
2022/08/31 13:00:25;;;;;;;5.80;5.13;;;28.20;66.10;;;;;;5011371;28;20492;-67
2022/08/31 13:02:54;;;;;;;6.50;5.80;;;28.20;66.40;;;;;;5011209;28;20476;-71
2022/08/31 13:05:25;;;;;;;5.20;4.80;;;28.10;65.60;;;;;;5008760;28;20479;-68
2022/08/31 13:07:53;;;;;;;6.60;6.00;;;27.70;65.40;;;;;;5012603;28;20484;-64
2022/08/31 13:10:27;;;;;;;8.03;5.40;;;27.70;65.80;;;;;;5011661;28;20850;-68
2022/08/31 13:12:56;;;;;;;4.90;4.40;;;27.40;65.40;;;;;;5009024;28;20455;-64
2022/08/31 13:15:26;;;;;;;5.10;4.60;;;27.40;65.30;;;;;;5009470;28;20488;-69
2022/08/31 13:17:53;;;;;;;4.10;3.70;;;27.40;66.40;;;;;;5009865;28;20485;-62
2022/08/31 13:20:25;;;;;;;5.03;3.63;;;27.60;64.30;;;;;;5007686;28;20888;-66
2022/08/31 13:22:57;;;;;;;2.90;2.53;;;27.70;62.80;;;;;;5011214;28;20480;-65